Time,TemperatureF,DewpointF,PressureIn,WindDirection,WindDirectionDegrees,WindSpeedMPH,WindSpeedGustMPH,Humidity,HourlyPrecipIn,Conditions,Clouds,dailyrainin,SoftwareType,DateUTC
2014-07-31 00:13:00,62.0,60.0,29.99,SSE,150,0.0,1.0,93,0.00,,,0.85,,2014-07-31 04:13:00,
2014-07-31 00:44:00,62.0,60.0,30.00,SSE,150,0.0,1.0,93,0.00,,,0.85,,2014-07-31 04:44:00,
2014-07-31 02:13:00,61.0,59.0,30.00,SSE,150,0.0,1.0,94,0.00,,,0.85,,2014-07-31 06:13:00,
2014-07-31 03:12:00,60.0,59.0,30.01,SE,146,0.0,0.0,95,0.00,,,0.85,,2014-07-31 07:12:00,
2014-07-31 03:52:00,60.0,59.0,30.01,SE,146,0.0,1.0,95,0.00,,,0.85,,2014-07-31 07:52:00,
2014-07-31 04:13:00,60.0,59.0,30.01,SE,146,0.0,2.0,95,0.00,,,0.85,,2014-07-31 08:13:00,
2014-07-31 04:22:00,60.0,59.0,30.01,SE,146,0.0,1.0,95,0.00,,,0.85,,2014-07-31 08:22:00,
2014-07-31 05:12:00,59.0,58.0,30.01,South,177,0.0,3.0,95,0.00,,,0.85,,2014-07-31 09:12:00,
2014-07-31 05:47:00,59.0,58.0,30.01,South,175,0.0,3.0,95,0.00,,,0.85,,2014-07-31 09:47:00,
2014-07-31 06:45:00,59.0,57.0,30.01,SSE,167,0.0,2.0,94,0.00,,,0.85,,2014-07-31 10:45:00,
2014-07-31 07:15:00,58.0,56.0,30.02,SSE,167,0.0,1.0,94,0.00,,,0.85,,2014-07-31 11:15:00,
2014-07-31 08:13:00,60.0,58.0,30.03,SSE,167,0.0,2.0,94,0.00,,,0.85,,2014-07-31 12:13:00,
2014-07-31 08:42:00,62.0,60.0,30.03,SSE,167,0.0,1.0,93,0.00,,,0.85,,2014-07-31 12:42:00,
2014-07-31 09:12:00,64.0,61.0,30.03,SSE,159,0.0,2.0,91,0.00,,,0.85,,2014-07-31 13:12:00,
2014-07-31 09:32:00,65.0,62.0,30.03,SSW,192,0.0,2.0,90,0.00,,,0.85,,2014-07-31 13:32:00,
2014-07-31 10:12:00,68.0,64.0,30.04,SSE,161,0.0,3.0,86,0.00,,,0.85,,2014-07-31 14:12:00,
2014-07-31 10:42:00,71.0,65.0,30.03,South,189,0.0,2.0,82,0.00,,,0.85,,2014-07-31 14:42:00,
2014-07-31 11:12:00,73.0,65.0,30.04,SSW,195,0.0,2.0,77,0.00,,,0.85,,2014-07-31 15:12:00,
2014-07-31 11:50:00,75.0,67.0,30.04,SSW,197,0.0,3.0,76,0.00,,,0.85,,2014-07-31 15:50:00,
2014-07-31 12:11:00,-999.0,-99.9,30.04,South,187,0.0,3.0,70,0.00,,,0.85,,2014-07-31 16:11:00,
2014-07-31 12:51:00,78.0,66.0,30.04,SSW,209,0.0,4.0,67,0.00,,,0.85,,2014-07-31 16:51:00,
2014-07-31 13:41:00,-999.0,-99.9,30.03,SSW,197,0.0,5.0,61,0.00,,,0.85,,2014-07-31 17:41:00,
2014-07-31 13:51:00,80.0,65.0,30.03,SSW,197,0.0,5.0,61,0.00,,,0.85,,2014-07-31 17:51:00,
2014-07-31 14:18:00,81.0,65.0,30.03,SSW,202,0.0,3.0,59,0.00,,,0.85,,2014-07-31 18:18:00,
2014-07-31 15:13:00,80.0,64.0,30.03,South,174,1.0,3.0,59,0.00,,,0.50,,2014-07-31 19:13:00,
2014-07-31 16:43:00,83.0,64.0,30.02,SSW,197,0.0,2.0,53,0.00,,,0.16,,2014-07-31 20:43:00,
2014-07-31 16:52:00,83.0,64.0,30.02,SSW,197,0.0,2.0,53,0.00,,,0.16,,2014-07-31 20:52:00,
2014-07-31 17:12:00,83.0,63.0,30.01,South,170,0.0,3.0,51,0.00,,,0.16,,2014-07-31 21:12:00,
2014-07-31 17:44:00,83.0,63.0,30.01,SSE,168,0.0,4.0,51,0.00,,,0.08,,2014-07-31 21:44:00,
2014-07-31 18:13:00,82.0,63.0,30.01,SW,227,0.0,2.0,52,0.00,,,0.08,,2014-07-31 22:13:00,
2014-07-31 18:43:00,81.0,63.0,30.01,SSW,198,0.0,4.0,54,0.00,,,0.04,,2014-07-31 22:43:00,
2014-07-31 19:13:00,81.0,61.0,30.01,SW,229,0.0,3.0,51,0.00,,,0.04,,2014-07-31 23:13:00,
2014-07-31 20:12:00,79.0,62.0,30.00,SW,229,0.0,0.0,57,0.00,,,0.01,,2014-08-01 00:12:00,
2014-07-31 20:32:00,78.0,62.0,30.01,SW,229,0.0,0.0,59,0.00,,,0.00,,2014-08-01 00:32:00,
2014-07-31 20:42:00,78.0,62.0,30.01,SW,229,0.0,0.0,59,0.00,,,0.00,,2014-08-01 00:42:00,
2014-07-31 21:12:00,76.0,63.0,30.01,SW,229,0.0,0.0,64,0.00,,,0.00,,2014-08-01 01:12:00,
2014-07-31 21:53:00,75.0,64.0,30.01,SW,229,0.0,0.0,69,0.00,,,0.00,,2014-08-01 01:53:00,
2014-07-31 22:12:00,73.0,63.0,30.01,SW,229,0.0,0.0,71,0.00,,,0.00,,2014-08-01 02:12:00,
2014-07-31 23:12:00,71.0,64.0,30.03,SW,229,0.0,0.0,79,0.00,,,0.00,,2014-08-01 03:12:00,